| time (UTC) | temp F | wind direction | speed MPH | gust MPH | rain 1hr in | rain 24hr in | rain mn in | humidity % | barometer mb |
| 20260904122059 | 71 | 300 | 2.0 | 5.0 | 0.00 | 0.62 | 0.61 | 95 | 1010.7 |
| 20260904121604 | 71 | 326 | 1.0 | 4.0 | 0.00 | 0.62 | 0.61 | 95 | 1010.5 |
| 20260904121057 | 71 | 324 | 1.0 | 5.0 | 0.00 | 0.62 | 0.61 | 95 | 1010.7 |
| 20260904120555 | 71 | 0 | 2.0 | 5.0 | 0.00 | 0.62 | 0.61 | 95 | 1010.8 |
| 20260904120059 | 71 | 296 | 1.0 | 5.0 | 0.00 | 0.62 | 0.61 | 95 | 1010.7 |
| 20260904115554 | 70 | 296 | 1.0 | 5.0 | 0.00 | 0.62 | 0.61 | 95 | 1010.7 |
| 20260904115100 | 70 | 296 | 1.0 | 5.0 | 0.00 | 0.62 | 0.61 | 95 | 1010.6 |
| 20260904114605 | 70 | 298 | 1.0 | 5.0 | 0.00 | 0.62 | 0.61 | 95 | 1010.6 |
| 20260904114058 | 70 | 0 | 1.0 | 5.0 | 0.00 | 0.62 | 0.61 | 95 | 1010.6 |
| 20260904113558 | 70 | 298 | 2.0 | 5.0 | 0.00 | 0.62 | 0.61 | 95 | 1010.5 |
| 20260904113105 | 70 | 301 | 1.0 | 4.0 | 0.00 | 0.62 | 0.61 | 94 | 1010.5 |
| 20260904112557 | 70 | 311 | 1.0 | 4.0 | 0.00 | 0.62 | 0.61 | 94 | 1010.4 |
| 20260904112054 | 70 | 325 | 1.0 | 4.0 | 0.00 | 0.62 | 0.61 | 94 | 1010.3 |
| 20260904111607 | 70 | 317 | 1.0 | 4.0 | 0.00 | 0.62 | 0.61 | 94 | 1010.4 |
| 20260904111056 | 69 | 317 | 1.0 | 4.0 | 0.00 | 0.62 | 0.61 | 95 | 1010.3 |
| 20260904110556 | 69 | 317 | 1.0 | 3.0 | 0.00 | 0.62 | 0.61 | 94 | 1010.2 |
| 20260904105556 | 69 | 0.0 | 0.0 | 0.00 | 0.62 | 0.61 | 94 | 1009.9 | |
| 20260904105056 | 69 | 0.0 | 0.0 | 0.00 | 0.62 | 0.61 | 94 | 1010.0 | |
| 20260904104608 | 69 | 0.0 | 0.0 | 0.00 | 0.62 | 0.61 | 94 | 1009.8 | |
| 20260904104055 | 69 | 0.0 | 0.0 | 0.00 | 0.62 | 0.61 | 94 | 1009.8 | |
| 20260904103555 | 69 | 0.0 | 0.0 | 0.00 | 0.62 | 0.61 | 94 | 1009.7 | |
| 20260904103106 | 69 | 0.0 | 0.0 | 0.00 | 0.62 | 0.61 | 94 | 1009.7 | |
| 20260904102554 | 69 | 0.0 | 0.0 | 0.00 | 0.62 | 0.61 | 94 | 1009.8 | |
| 20260904102058 | 69 | 0.0 | 0.0 | 0.00 | 0.62 | 0.61 | 94 | 1009.6 | |
| 20260904101603 | 69 | 0.0 | 0.0 | 0.00 | 0.62 | 0.61 | 94 | 1009.7 | |
| 20260904101055 | 69 | 0.0 | 0.0 | 0.00 | 0.62 | 0.61 | 94 | 1009.8 | |
| 20260904100557 | 69 | 0.0 | 0.0 | 0.00 | 0.62 | 0.61 | 94 | 1009.7 | |
| 20260904100111 | 69 | 0.0 | 0.0 | 0.00 | 0.62 | 0.61 | 94 | 1009.6 | |
| 20260904095556 | 69 | 0.0 | 0.0 | 0.01 | 0.62 | 0.61 | 94 | 1009.6 | |
| 20260904095057 | 69 | 0.0 | 0.0 | 0.01 | 0.62 | 0.61 | 94 | 1009.4 | |
| 20260904094608 | 69 | 0.0 | 0.0 | 0.01 | 0.62 | 0.61 | 94 | 1009.5 | |
| 20260904094053 | 69 | 0.0 | 0.0 | 0.01 | 0.62 | 0.61 | 94 | 1009.5 | |
| 20260904093558 | 69 | 0.0 | 0.0 | 0.01 | 0.62 | 0.61 | 94 | 1009.4 | |
| 20260904093107 | 69 | 0.0 | 0.0 | 0.01 | 0.62 | 0.61 | 94 | 1009.5 | |
| 20260904092554 | 69 | 0.0 | 0.0 | 0.01 | 0.62 | 0.61 | 93 | 1009.5 | |
| 20260904092054 | 69 | 0.0 | 0.0 | 0.01 | 0.62 | 0.61 | 93 | 1009.6 | |
| 20260904091600 | 70 | 0.0 | 0.0 | 0.02 | 0.62 | 0.61 | 93 | 1009.5 | |
| 20260904091054 | 70 | 0.0 | 0.0 | 0.03 | 0.62 | 0.61 | 93 | 1009.6 | |
| 20260904090553 | 70 | 0.0 | 0.0 | 0.13 | 0.62 | 0.61 | 93 | 1009.4 | |
| 20260904090106 | 70 | 0.0 | 0.0 | 0.29 | 0.61 | 0.60 | 93 | 1009.3 | |
| 20260904085556 | 70 | 0.0 | 0.0 | 0.39 | 0.61 | 0.60 | 93 | 1009.3 | |
| 20260904085058 | 70 | 0.0 | 0.0 | 0.40 | 0.61 | 0.60 | 93 | 1009.2 | |
| 20260904084606 | 70 | 0.0 | 0.0 | 0.40 | 0.61 | 0.60 | 93 | 1009.0 | |
| 20260904084056 | 70 | 0.0 | 0.0 | 0.40 | 0.61 | 0.60 | 93 | 1008.8 | |
| 20260904083557 | 70 | 0.0 | 0.0 | 0.40 | 0.61 | 0.60 | 93 | 1009.0 | |
| 20260904083101 | 70 | 0.0 | 0.0 | 0.40 | 0.61 | 0.60 | 93 | 1009.0 | |
| 20260904082558 | 70 | 0.0 | 0.0 | 0.40 | 0.61 | 0.60 | 93 | 1009.3 | |
| 20260904082056 | 71 | 0.0 | 0.0 | 0.40 | 0.61 | 0.60 | 93 | 1009.4 | |
| 20260904081608 | 71 | 0.0 | 0.0 | 0.39 | 0.60 | 0.58 | 93 | 1009.4 | |
| 20260904081053 | 71 | 0.0 | 0.0 | 0.38 | 0.58 | 0.58 | 93 | 1009.7 | |
| 20260904080555 | 72 | 0.0 | 0.0 | 0.28 | 0.49 | 0.48 | 93 | 1009.7 | |
| 20260904080112 | 72 | 0.0 | 0.0 | 0.10 | 0.31 | 0.30 | 94 | 1010.4 | |
| 20260904075558 | 72 | 0.0 | 0.0 | 0.01 | 0.23 | 0.21 | 94 | 1010.2 | |
| 20260904075100 | 72 | 0.0 | 0.0 | 0.00 | 0.22 | 0.20 | 94 | 1009.5 | |
| 20260904074603 | 72 | 0.0 | 0.0 | 0.01 | 0.22 | 0.20 | 93 | 1009.3 | |
| 20260904074057 | 72 | 0.0 | 0.0 | 0.01 | 0.22 | 0.20 | 93 | 1009.2 | |
| 20260904073557 | 72 | 0.0 | 0.0 | 0.02 | 0.22 | 0.20 | 93 | 1009.2 | |
| 20260904073104 | 72 | 0.0 | 0.0 | 0.05 | 0.22 | 0.20 | 93 | 1009.4 | |
| 20260904072553 | 72 | 0.0 | 0.0 | 0.13 | 0.22 | 0.20 | 93 | 1009.5 | |
| 20260904072053 | 72 | 0.0 | 0.0 | 0.19 | 0.22 | 0.20 | 93 | 1009.4 | |
| 20260904071606 | 72 | 0.0 | 0.0 | 0.20 | 0.22 | 0.20 | 93 | 1009.4 | |
| 20260904071055 | 72 | 0.0 | 0.0 | 0.20 | 0.22 | 0.20 | 93 | 1009.5 | |
| 20260904070557 | 72 | 0.0 | 0.0 | 0.20 | 0.22 | 0.20 | 93 | 1009.8 | |
| 20260904070105 | 72 | 0.0 | 0.0 | 0.20 | 0.22 | 0.20 | 93 | 1010.0 | |
| 20260904065558 | 72 | 0.0 | 0.0 | 0.20 | 0.27 | 0.20 | 93 | 1009.9 | |
| 20260904065057 | 72 | 0.0 | 0.0 | 0.20 | 0.27 | 0.20 | 93 | 1009.7 | |
| 20260904064620 | 72 | 0.0 | 0.0 | 0.19 | 0.26 | 0.19 | 93 | 1009.9 | |
| 20260904064054 | 72 | 0.0 | 0.0 | 0.19 | 0.26 | 0.19 | 93 | 1009.9 | |
| 20260904063554 | 72 | 0.0 | 0.0 | 0.18 | 0.25 | 0.18 | 93 | 1009.7 | |
| 20260904063103 | 72 | 0.0 | 0.0 | 0.14 | 0.21 | 0.14 | 93 | 1009.9 | |
| 20260904062558 | 72 | 0.0 | 0.0 | 0.06 | 0.13 | 0.06 | 93 | 1010.2 | |
| 20260904062053 | 72 | 0.0 | 0.0 | 0.01 | 0.08 | 0.01 | 93 | 1010.2 | |
| 20260904061605 | 72 | 0.0 | 0.0 | 0.00 | 0.07 | 0.00 | 93 | 1010.2 | |
| 20260904061100 | 72 | 0.0 | 0.0 | 0.00 | 0.07 | 0.00 | 93 | 1010.3 | |
| 20260904060557 | 72 | 0.0 | 0.0 | 0.00 | 0.07 | 0.00 | 93 | 1010.4 | |
| 20260904060110 | 72 | 0.0 | 0.0 | 0.00 | 0.07 | 0.00 | 93 | 1010.3 | |
| 20260904055553 | 72 | 0.0 | 0.0 | 0.00 | 0.29 | 0.00 | 92 | 1010.1 | |
| 20260904055056 | 72 | 0.0 | 0.0 | 0.00 | 0.29 | 0.00 | 92 | 1010.3 | |
| 20260904054607 | 72 | 0.0 | 0.0 | 0.00 | 0.29 | 0.00 | 93 | 1010.4 | |
| 20260904054059 | 72 | 0.0 | 0.0 | 0.00 | 0.29 | 0.00 | 92 | 1010.5 | |
| 20260904053557 | 72 | 0.0 | 0.0 | 0.00 | 0.29 | 0.00 | 92 | 1010.4 | |
| 20260904053105 | 72 | 0.0 | 0.0 | 0.00 | 0.29 | 0.00 | 92 | 1010.4 | |
| 20260904052558 | 72 | 0.0 | 0.0 | 0.00 | 0.29 | 0.00 | 92 | 1010.4 | |
| 20260904052057 | 72 | 0.0 | 0.0 | 0.00 | 0.29 | 0.00 | 92 | 1010.3 | |
| 20260904051610 | 72 | 0.0 | 0.0 | 0.00 | 0.29 | 0.00 | 92 | 1010.3 | |
| 20260904051054 | 72 | 0.0 | 0.0 | 0.00 | 0.29 | 0.00 | 92 | 1010.4 | |
| 20260904050554 | 72 | 0.0 | 0.0 | 0.00 | 0.29 | 0.00 | 92 | 1010.6 | |
| 20260904050148 | 73 | 0.0 | 0.0 | 0.00 | 0.29 | 0.00 | 92 | 1010.8 | |
| 20260904045556 | 73 | 0.0 | 0.0 | 0.00 | 0.30 | 0.00 | 92 | 1010.9 | |
| 20260904045056 | 73 | 0.0 | 0.0 | 0.00 | 0.30 | 0.00 | 92 | 1011.0 | |
| 20260904044606 | 73 | 0.0 | 0.0 | 0.00 | 0.30 | 0.00 | 92 | 1011.2 | |
| 20260904044055 | 72 | 0.0 | 0.0 | 0.00 | 0.30 | 0.00 | 91 | 1010.9 | |
| 20260904043555 | 72 | 0.0 | 0.0 | 0.00 | 0.30 | 0.00 | 91 | 1010.9 | |
| 20260904043104 | 72 | 0.0 | 0.0 | 0.00 | 0.30 | 0.00 | 91 | 1011.0 | |
| 20260904042556 | 73 | 0.0 | 0.0 | 0.00 | 0.30 | 0.00 | 91 | 1011.1 | |
| 20260904042058 | 73 | 0.0 | 0.0 | 0.00 | 0.30 | 0.00 | 91 | 1011.1 | |
| 20260904041624 | 73 | 0.0 | 0.0 | 0.00 | 0.30 | 0.00 | 91 | 1011.1 | |
| 20260904041055 | 72 | 0.0 | 0.0 | 0.00 | 0.30 | 0.00 | 90 | 1011.1 | |
| 20260904040554 | 73 | 0.0 | 0.0 | 0.00 | 0.30 | 0.00 | 90 | 1011.0 | |
| 20260904040108 | 73 | 0.0 | 0.0 | 0.00 | 0.30 | 0.00 | 90 | 1010.9 | |
| 20260904035557 | 73 | 0.0 | 0.0 | 0.00 | 0.30 | 0.30 | 90 | 1010.9 | |
| 20260904035055 | 72 | 0.0 | 0.0 | 0.00 | 0.30 | 0.30 | 90 | 1011.1 | |
| 20260904034614 | 73 | 0.0 | 0.0 | 0.00 | 0.30 | 0.30 | 90 | 1011.2 | |
| 20260904034057 | 73 | 0.0 | 0.0 | 0.00 | 0.30 | 0.30 | 90 | 1011.3 | |
| 20260904033555 | 73 | 0.0 | 0.0 | 0.00 | 0.30 | 0.30 | 90 | 1011.3 | |
| 20260904033103 | 73 | 0.0 | 0.0 | 0.00 | 0.30 | 0.30 | 89 | 1011.2 | |
| 20260904032555 | 73 | 0.0 | 0.0 | 0.00 | 0.30 | 0.30 | 89 | 1011.1 | |
| 20260904032056 | 73 | 0.0 | 0.0 | 0.00 | 0.30 | 0.30 | 89 | 1011.3 | |
| 20260904031609 | 73 | 0.0 | 0.0 | 0.00 | 0.30 | 0.30 | 89 | 1011.4 | |
| 20260904031053 | 73 | 0.0 | 0.0 | 0.00 | 0.30 | 0.30 | 89 | 1011.4 | |
| 20260904030554 | 73 | 0.0 | 0.0 | 0.00 | 0.30 | 0.30 | 89 | 1011.4 | |
| 20260904030104 | 73 | 0.0 | 0.0 | 0.00 | 0.30 | 0.30 | 89 | 1011.3 | |
| 20260904025556 | 73 | 0.0 | 0.0 | 0.00 | 0.30 | 0.30 | 89 | 1011.5 | |
| 20260904025054 | 73 | 0.0 | 0.0 | 0.00 | 0.30 | 0.30 | 89 | 1011.7 | |
| 20260904024607 | 73 | 0.0 | 0.0 | 0.00 | 0.30 | 0.30 | 89 | 1011.7 | |
| 20260904024055 | 73 | 0.0 | 0.0 | 0.00 | 0.30 | 0.30 | 89 | 1011.7 | |
| 20260904023556 | 74 | 0.0 | 0.0 | 0.00 | 0.30 | 0.30 | 88 | 1011.7 | |
| 20260904023104 | 74 | 0.0 | 0.0 | 0.00 | 0.30 | 0.30 | 88 | 1011.6 | |
| 20260904022554 | 74 | 0.0 | 0.0 | 0.00 | 0.30 | 0.30 | 88 | 1011.7 | |
| 20260904022057 | 74 | 0.0 | 0.0 | 0.00 | 0.30 | 0.30 | 89 | 1011.7 | |
| 20260904021606 | 74 | 0.0 | 0.0 | 0.00 | 0.30 | 0.30 | 89 | 1011.8 | |
| 20260904021053 | 74 | 0.0 | 0.0 | 0.00 | 0.30 | 0.30 | 88 | 1011.8 | |
| 20260904020554 | 74 | 0.0 | 0.0 | 0.00 | 0.30 | 0.30 | 88 | 1011.9 | |
| 20260904020103 | 74 | 0.0 | 0.0 | 0.00 | 0.30 | 0.30 | 88 | 1011.8 | |
| 20260904015557 | 74 | 0.0 | 0.0 | 0.00 | 0.30 | 0.30 | 88 | 1011.8 | |
| 20260904015056 | 75 | 0.0 | 0.0 | 0.00 | 0.30 | 0.30 | 88 | 1012.0 | |
| 20260904014640 | 75 | 0.0 | 0.0 | 0.00 | 0.30 | 0.30 | 88 | 1012.1 | |
| 20260904014055 | 75 | 0.0 | 0.0 | 0.00 | 0.30 | 0.30 | 89 | 1012.3 | |
| 20260904013555 | 75 | 0.0 | 0.0 | 0.00 | 0.30 | 0.30 | 88 | 1012.2 | |
| 20260904013103 | 75 | 0.0 | 0.0 | 0.00 | 0.30 | 0.30 | 88 | 1012.2 | |
| 20260904012556 | 75 | 0.0 | 0.0 | 0.00 | 0.30 | 0.30 | 87 | 1012.3 | |
| 20260904012057 | 75 | 0.0 | 0.0 | 0.00 | 0.30 | 0.30 | 87 | 1012.3 | |
| 20260904011610 | 75 | 0.0 | 0.0 | 0.00 | 0.30 | 0.30 | 87 | 1012.4 | |
| 20260904011053 | 75 | 0.0 | 0.0 | 0.00 | 0.30 | 0.30 | 87 | 1012.3 | |
| 20260904010553 | 75 | 0.0 | 0.0 | 0.00 | 0.30 | 0.30 | 87 | 1012.1 | |
| 20260904010101 | 75 | 0.0 | 0.0 | 0.00 | 0.30 | 0.30 | 86 | 1012.0 | |
| 20260904005600 | 75 | 0.0 | 0.0 | 0.00 | 0.30 | 0.30 | 86 | 1011.8 | |
| 20260904005056 | 75 | 0.0 | 0.0 | 0.00 | 0.30 | 0.30 | 86 | 1012.0 | |
| 20260904004558 | 75 | 0.0 | 0.0 | 0.00 | 0.30 | 0.30 | 86 | 1011.9 | |
| 20260904004054 | 76 | 0.0 | 0.0 | 0.00 | 0.30 | 0.30 | 86 | 1012.0 | |
| 20260904003557 | 76 | 0.0 | 0.0 | 0.00 | 0.30 | 0.30 | 85 | 1011.9 | |
| 20260904003106 | 76 | 0.0 | 0.0 | 0.00 | 0.30 | 0.30 | 85 | 1011.9 | |
| 20260904002556 | 76 | 0.0 | 0.0 | 0.00 | 0.30 | 0.30 | 84 | 1011.8 | |
| 20260904002055 | 76 | 0.0 | 0.0 | 0.00 | 0.30 | 0.30 | 84 | 1012.1 | |
| 20260904001602 | 76 | 0.0 | 0.0 | 0.00 | 0.30 | 0.30 | 84 | 1012.0 | |
| 20260904001053 | 76 | 0.0 | 0.0 | 0.00 | 0.30 | 0.30 | 83 | 1011.9 | |
| 20260904000556 | 77 | 0.0 | 0.0 | 0.00 | 0.30 | 0.30 | 83 | 1011.6 | |
| 20260904000105 | 77 | 0.0 | 0.0 | 0.00 | 0.30 | 0.30 | 83 | 1011.5 | |
| 20260903235555 | 77 | 0.0 | 0.0 | 0.00 | 0.30 | 0.30 | 83 | 1011.5 | |
| 20260903235057 | 77 | 0.0 | 0.0 | 0.00 | 0.30 | 0.30 | 83 | 1011.3 | |
| 20260903234604 | 77 | 0.0 | 0.0 | 0.00 | 0.30 | 0.30 | 83 | 1011.4 | |
| 20260903234056 | 77 | 0.0 | 0.0 | 0.00 | 0.30 | 0.30 | 82 | 1011.5 | |
| 20260903233555 | 78 | 0.0 | 0.0 | 0.00 | 0.30 | 0.30 | 82 | 1011.6 | |
| 20260903233105 | 78 | 0.0 | 0.0 | 0.00 | 0.30 | 0.30 | 82 | 1011.5 | |
| 20260903232557 | 78 | 0.0 | 0.0 | 0.00 | 0.30 | 0.30 | 82 | 1011.4 | |
| 20260903232056 | 78 | 0.0 | 0.0 | 0.00 | 0.30 | 0.30 | 82 | 1011.2 | |
| 20260903231619 | 78 | 0.0 | 0.0 | 0.00 | 0.30 | 0.30 | 82 | 1011.1 | |
| 20260903231054 | 78 | 0.0 | 0.0 | 0.00 | 0.30 | 0.30 | 82 | 1011.3 | |
| 20260903230557 | 79 | 1.0 | 0.0 | 0.00 | 0.30 | 0.30 | 82 | 1011.5 | |
| 20260903230114 | 79 | 2.0 | 7.0 | 0.00 | 0.30 | 0.30 | 82 | 1011.4 | |
| 20260903225556 | 79 | 245 | 2.0 | 7.0 | 0.00 | 0.30 | 0.30 | 82 | 1011.4 |
| 20260903225055 | 79 | 267 | 1.0 | 6.0 | 0.00 | 0.30 | 0.30 | 82 | 1011.6 |
| 20260903224600 | 79 | 271 | 1.0 | 6.0 | 0.00 | 0.30 | 0.30 | 82 | 1011.5 |
| 20260903224057 | 79 | 275 | 2.0 | 4.0 | 0.00 | 0.30 | 0.30 | 82 | 1011.6 |
| 20260903223559 | 80 | 275 | 1.0 | 4.0 | 0.00 | 0.30 | 0.30 | 82 | 1011.6 |
| 20260903223117 | 80 | 275 | 2.0 | 4.0 | 0.00 | 0.30 | 0.30 | 82 | 1011.5 |
| 20260903222555 | 80 | 275 | 0.0 | 3.0 | 0.00 | 0.30 | 0.30 | 82 | 1011.6 |
| 20260903222056 | 80 | 0 | 0.0 | 4.0 | 0.00 | 0.30 | 0.30 | 82 | 1011.6 |
| 20260903221604 | 80 | 0 | 1.0 | 4.0 | 0.00 | 0.30 | 0.30 | 82 | 1011.7 |
| 20260903221057 | 80 | 279 | 1.0 | 3.0 | 0.00 | 0.30 | 0.30 | 82 | 1011.6 |
| 20260903220553 | 81 | 288 | 0.0 | 2.0 | 0.00 | 0.30 | 0.30 | 82 | 1011.7 |
| 20260903220111 | 81 | 0 | 0.0 | 0.0 | 0.00 | 0.30 | 0.30 | 82 | 1011.6 |
| 20260903215557 | 81 | 0 | 0.0 | 0.0 | 0.00 | 0.30 | 0.30 | 81 | 1011.5 |
| 20260903215053 | 81 | 0 | 0.0 | 0.0 | 0.00 | 0.30 | 0.30 | 81 | 1011.6 |
| 20260903214601 | 81 | 0 | 0.0 | 0.0 | 0.00 | 0.30 | 0.30 | 81 | 1011.6 |
| 20260903214057 | 81 | 0 | 0.0 | 0.0 | 0.00 | 0.30 | 0.30 | 81 | 1011.6 |
| 20260903213556 | 81 | 0 | 0.0 | 0.0 | 0.00 | 0.30 | 0.30 | 80 | 1011.6 |
| 20260903213106 | 82 | 0 | 0.0 | 0.0 | 0.00 | 0.30 | 0.30 | 81 | 1011.5 |
| 20260903212557 | 82 | 0 | 0.0 | 0.0 | 0.00 | 0.30 | 0.30 | 81 | 1011.3 |
| 20260903212059 | 82 | 0 | 0.0 | 0.0 | 0.00 | 0.30 | 0.30 | 81 | 1011.3 |
| 20260903211616 | 82 | 0 | 0.0 | 0.0 | 0.00 | 0.30 | 0.30 | 81 | 1011.4 |
| 20260903211058 | 82 | 0 | 0.0 | 0.0 | 0.00 | 0.30 | 0.30 | 81 | 1011.5 |
| 20260903210558 | 82 | 0 | 0.0 | 0.0 | 0.00 | 0.30 | 0.30 | 81 | 1011.6 |
| 20260903210101 | 82 | 0 | 0.0 | 0.0 | 0.00 | 0.30 | 0.30 | 81 | 1011.6 |
| 20260903205558 | 82 | 0 | 0.0 | 0.0 | 0.00 | 0.31 | 0.30 | 81 | 1011.7 |
| 20260903205058 | 82 | 0 | 0.0 | 0.0 | 0.00 | 0.31 | 0.30 | 80 | 1011.6 |
| 20260903204603 | 82 | 0 | 0.0 | 0.0 | 0.00 | 0.31 | 0.30 | 80 | 1011.6 |
| 20260903204058 | 82 | 0 | 0.0 | 0.0 | 0.00 | 0.31 | 0.30 | 80 | 1011.5 |
| 20260903203557 | 82 | 0 | 0.0 | 0.0 | 0.00 | 0.31 | 0.30 | 80 | 1011.5 |
| 20260903203109 | 82 | 0 | 0.0 | 0.0 | 0.00 | 0.31 | 0.30 | 80 | 1011.7 |
| 20260903202558 | 82 | 0 | 0.0 | 0.0 | 0.00 | 0.31 | 0.30 | 81 | 1011.7 |
| 20260903202059 | 82 | 0 | 0.0 | 0.0 | 0.00 | 0.31 | 0.30 | 80 | 1011.7 |
| 20260903201602 | 82 | 0 | 0.0 | 3.0 | 0.00 | 0.31 | 0.30 | 80 | 1011.7 |
| 20260903201058 | 82 | 0 | 0.0 | 4.0 | 0.00 | 0.31 | 0.30 | 80 | 1011.7 |
| 20260903200558 | 82 | 290 | 0.0 | 4.0 | 0.00 | 0.31 | 0.30 | 81 | 1011.7 |
| 20260903200110 | 82 | 289 | 0.0 | 2.0 | 0.00 | 0.31 | 0.30 | 81 | 1011.7 |
| 20260903195556 | 82 | 0 | 0.0 | 2.0 | 0.00 | 0.35 | 0.30 | 80 | 1011.7 |
| 20260903195059 | 82 | 0 | 0.0 | 7.0 | 0.00 | 0.35 | 0.30 | 82 | 1011.7 |
| 20260903194559 | 82 | 0 | 0.0 | 7.0 | 0.00 | 0.35 | 0.30 | 82 | 1011.8 |
| 20260903194057 | 82 | 0 | 1.0 | 7.0 | 0.00 | 0.35 | 0.30 | 82 | 1011.9 |
| 20260903193555 | 81 | 46 | 1.0 | 6.0 | 0.00 | 0.35 | 0.30 | 81 | 1011.8 |
| 20260903193106 | 81 | 0 | 0.0 | 7.0 | 0.00 | 0.35 | 0.30 | 81 | 1011.7 |
| 20260903192556 | 81 | 83 | 2.0 | 7.0 | 0.00 | 0.35 | 0.30 | 81 | 1011.8 |
| 20260903192055 | 81 | 76 | 0.0 | 6.0 | 0.00 | 0.35 | 0.30 | 81 | 1011.9 |
| 20260903191608 | 81 | 0 | 0.0 | 5.0 | 0.00 | 0.35 | 0.30 | 81 | 1011.9 |
| 20260903191058 | 81 | 0 | 2.0 | 6.0 | 0.00 | 0.35 | 0.30 | 80 | 1011.8 |
| 20260903190557 | 81 | 61 | 2.0 | 8.0 | 0.00 | 0.35 | 0.30 | 81 | 1012.0 |
| 20260903185557 | 81 | 76 | 4.0 | 7.0 | 0.00 | 0.35 | 0.30 | 80 | 1012.1 |
| 20260903185056 | 82 | 292 | 1.0 | 3.0 | 0.00 | 0.35 | 0.30 | 80 | 1012.0 |
| 20260903184606 | 82 | 288 | 0.0 | 5.0 | 0.00 | 0.35 | 0.30 | 81 | 1012.1 |
| 20260903184058 | 82 | 288 | 1.0 | 5.0 | 0.00 | 0.35 | 0.30 | 81 | 1012.2 |
| 20260903183556 | 82 | 0 | 0.0 | 5.0 | 0.00 | 0.35 | 0.30 | 81 | 1012.3 |
| 20260903183122 | 82 | 0 | 1.0 | 8.0 | 0.00 | 0.35 | 0.30 | 82 | 1012.4 |
| 20260903182557 | 82 | 0 | 3.0 | 8.0 | 0.00 | 0.35 | 0.30 | 82 | 1012.5 |
| 20260903182059 | 82 | 0 | 1.0 | 4.0 | 0.00 | 0.35 | 0.30 | 82 | 1012.4 |
| 20260903181639 | 82 | 285 | 0.0 | 3.0 | 0.00 | 0.35 | 0.30 | 83 | 1012.3 |
| 20260903181056 | 82 | 0 | 0.0 | 4.0 | 0.00 | 0.35 | 0.30 | 83 | 1012.3 |
| 20260903180556 | 81 | 285 | 1.0 | 4.0 | 0.00 | 0.35 | 0.30 | 84 | 1012.5 |
| 20260903180104 | 81 | 285 | 0.0 | 8.0 | 0.00 | 0.35 | 0.30 | 84 | 1012.4 |
| 20260903175556 | 81 | 0 | 2.0 | 8.0 | 0.00 | 0.35 | 0.30 | 85 | 1012.5 |
| 20260903175100 | 81 | 281 | 0.0 | 7.0 | 0.00 | 0.35 | 0.30 | 85 | 1012.7 |
| 20260903174608 | 81 | 290 | 3.0 | 7.0 | 0.00 | 0.35 | 0.30 | 86 | 1012.5 |
| 20260903174056 | 80 | 275 | 1.0 | 7.0 | 0.00 | 0.35 | 0.30 | 87 | 1012.5 |
| 20260903173558 | 80 | 283 | 1.0 | 7.0 | 0.00 | 0.35 | 0.30 | 87 | 1012.5 |
| 20260903173112 | 80 | 288 | 1.0 | 4.0 | 0.00 | 0.35 | 0.30 | 87 | 1012.7 |
| 20260903172557 | 80 | 288 | 1.0 | 7.0 | 0.00 | 0.35 | 0.30 | 87 | 1012.7 |
| 20260903172057 | 79 | 287 | 2.0 | 8.0 | 0.00 | 0.35 | 0.30 | 87 | 1012.8 |
| 20260903171606 | 79 | 240 | 0.0 | 8.0 | 0.00 | 0.35 | 0.30 | 88 | 1012.8 |
| 20260903171057 | 79 | 290 | 2.0 | 8.0 | 0.00 | 0.35 | 0.30 | 88 | 1012.8 |
| 20260903170556 | 78 | 267 | 2.0 | 6.0 | 0.00 | 0.35 | 0.30 | 88 | 1012.8 |
| 20260903170103 | 78 | 350 | 0.0 | 6.0 | 0.00 | 0.35 | 0.30 | 88 | 1012.7 |
| 20260903165556 | 78 | 55 | 0.0 | 6.0 | 0.00 | 0.35 | 0.30 | 89 | 1012.9 |
| 20260903165057 | 78 | 0 | 1.0 | 5.0 | 0.00 | 0.35 | 0.30 | 89 | 1012.9 |
| 20260903164600 | 77 | 277 | 1.0 | 4.0 | 0.00 | 0.35 | 0.30 | 89 | 1012.9 |
| 20260903164056 | 77 | 308 | 1.0 | 4.0 | 0.00 | 0.35 | 0.30 | 89 | 1012.9 |
| 20260903163557 | 77 | 0 | 0.0 | 8.0 | 0.00 | 0.35 | 0.30 | 88 | 1012.9 |
| 20260903163106 | 77 | 309 | 2.0 | 8.0 | 0.00 | 0.35 | 0.30 | 88 | 1013.0 |
| 20260903162556 | 77 | 257 | 2.0 | 9.0 | 0.00 | 0.35 | 0.30 | 88 | 1013.1 |
| 20260903162056 | 77 | 265 | 3.0 | 9.0 | 0.00 | 0.35 | 0.30 | 90 | 1013.2 |
| 20260903161618 | 77 | 239 | 2.0 | 8.0 | 0.00 | 0.35 | 0.30 | 91 | 1013.2 |
| 20260903161058 | 76 | 256 | 3.0 | 9.0 | 0.00 | 0.35 | 0.30 | 91 | 1013.4 |
| 20260903160556 | 76 | 265 | 3.0 | 9.0 | 0.00 | 0.35 | 0.30 | 90 | 1013.6 |
| 20260903155557 | 75 | 244 | 2.0 | 8.0 | 0.00 | 0.35 | 0.30 | 92 | 1013.6 |
| 20260903155057 | 76 | 292 | 1.0 | 9.0 | 0.00 | 0.35 | 0.30 | 92 | 1013.6 |
| 20260903154606 | 75 | 0 | 3.0 | 9.0 | 0.00 | 0.35 | 0.30 | 93 | 1013.6 |
| 20260903154056 | 76 | 311 | 3.0 | 9.0 | 0.00 | 0.35 | 0.30 | 94 | 1013.7 |
| 20260903153555 | 75 | 268 | 2.0 | 5.0 | 0.00 | 0.35 | 0.30 | 93 | 1013.7 |
| 20260903153107 | 75 | 0 | 2.0 | 8.0 | 0.00 | 0.35 | 0.30 | 93 | 1013.7 |
| 20260903152557 | 75 | 288 | 1.0 | 8.0 | 0.00 | 0.35 | 0.30 | 94 | 1013.6 |
| 20260903152117 | 75 | 200 | 3.0 | 9.0 | 0.00 | 0.35 | 0.30 | 94 | 1013.7 |
| 20260903151612 | 75 | 261 | 1.0 | 9.0 | 0.00 | 0.35 | 0.30 | 95 | 1013.7 |
| 20260903151056 | 74 | 255 | 3.0 | 9.0 | 0.00 | 0.35 | 0.30 | 95 | 1013.8 |
| 20260903150557 | 73 | 251 | 2.0 | 8.0 | 0.00 | 0.35 | 0.30 | 95 | 1013.9 |
| 20260903150104 | 73 | 276 | 1.0 | 8.0 | 0.00 | 0.35 | 0.30 | 95 | 1013.9 |
| 20260903145557 | 73 | 261 | 2.0 | 7.0 | 0.00 | 0.35 | 0.30 | 95 | 1013.9 |
| 20260903145056 | 73 | 257 | 4.0 | 7.0 | 0.00 | 0.35 | 0.30 | 95 | 1013.8 |
| 20260903144603 | 73 | 246 | 2.0 | 7.0 | 0.00 | 0.35 | 0.30 | 96 | 1013.8 |
| 20260903144058 | 73 | 232 | 0.0 | 3.0 | 0.00 | 0.35 | 0.30 | 96 | 1013.7 |
| 20260903143555 | 73 | 0 | 1.0 | 4.0 | 0.00 | 0.35 | 0.30 | 96 | 1013.7 |
| 20260903143105 | 72 | 232 | 1.0 | 9.0 | 0.00 | 0.35 | 0.30 | 96 | 1013.7 |
| 20260903142556 | 72 | 232 | 3.0 | 9.0 | 0.00 | 0.35 | 0.30 | 96 | 1013.7 |
| 20260903142057 | 72 | 272 | 1.0 | 8.0 | 0.01 | 0.35 | 0.30 | 96 | 1013.8 |
| 20260903141603 | 72 | 231 | 1.0 | 9.0 | 0.01 | 0.35 | 0.30 | 96 | 1013.9 |
| 20260903141055 | 72 | 237 | 3.0 | 9.0 | 0.01 | 0.35 | 0.30 | 96 | 1013.9 |
| 20260903140555 | 72 | 360 | 2.0 | 5.0 | 0.01 | 0.35 | 0.30 | 96 | 1014.1 |
| 20260903140104 | 72 | 237 | 1.0 | 5.0 | 0.01 | 0.35 | 0.30 | 96 | 1014.1 |
| 20260903135557 | 72 | 0 | 2.0 | 5.0 | 0.01 | 0.35 | 0.30 | 96 | 1014.0 |
| 20260903135056 | 72 | 247 | 1.0 | 4.0 | 0.01 | 0.35 | 0.30 | 96 | 1014.0 |
| 20260903134611 | 72 | 0 | 0.0 | 3.0 | 0.01 | 0.35 | 0.30 | 96 | 1014.0 |
| 20260903134055 | 72 | 0 | 0.0 | 3.0 | 0.01 | 0.35 | 0.30 | 96 | 1014.2 |
| 20260903133557 | 71 | 0 | 1.0 | 7.0 | 0.01 | 0.35 | 0.30 | 96 | 1014.1 |
| 20260903133106 | 71 | 256 | 2.0 | 7.0 | 0.01 | 0.35 | 0.30 | 96 | 1014.0 |
| 20260903132556 | 71 | 241 | 2.0 | 5.0 | 0.01 | 0.35 | 0.30 | 96 | 1014.0 |
| 20260903132056 | 71 | 240 | 2.0 | 9.0 | 0.00 | 0.34 | 0.29 | 96 | 1014.2 |
| 20260903131604 | 71 | 0 | 2.0 | 9.0 | 0.00 | 0.34 | 0.29 | 96 | 1014.3 |
| 20260903131056 | 71 | 252 | 2.0 | 7.0 | 0.00 | 0.34 | 0.29 | 96 | 1014.4 |
| 20260903130557 | 71 | 256 | 1.0 | 7.0 | 0.00 | 0.34 | 0.29 | 96 | 1014.4 |
| 20260903130106 | 72 | 0 | 1.0 | 7.0 | 0.00 | 0.34 | 0.29 | 96 | 1014.5 |
| 20260903125556 | 72 | 255 | 2.0 | 7.0 | 0.00 | 0.34 | 0.29 | 96 | 1014.4 |
| 20260903125057 | 72 | 0 | 1.0 | 3.0 | 0.00 | 0.34 | 0.29 | 96 | 1014.5 |
| 20260903124607 | 71 | 270 | 0.0 | 4.0 | 0.00 | 0.34 | 0.29 | 96 | 1014.4 |
| 20260903124055 | 71 | 0 | 2.0 | 4.0 | 0.00 | 0.34 | 0.29 | 96 | 1014.4 |
| 20260903123555 | 71 | 0 | 1.0 | 4.0 | 0.00 | 0.34 | 0.29 | 96 | 1014.6 |
| 20260903123103 | 70 | 0 | 0.0 | 0.0 | 0.00 | 0.34 | 0.29 | 95 | 1014.6 |
| 20260903122557 | 70 | 0 | 0.0 | 0.0 | 0.00 | 0.34 | 0.29 | 96 | 1014.8 |